Time;durP1;ratioP1;P1;durP2;ratioP2;P2;SDS_P1;SDS_P2;PMS_P1;PMS_P2;Temp;Humidity;BMP_temperature;BMP_pressure;BME280_temperature;BME280_humidity;BME280_pressure;Samples;Min_cycle;Max_cycle;Signal;HPM_P1;HPM_P2
2022/09/23 00:01:24;;;;;;;10.68;5.57;;;13.10;71.10;;;;;;5076008;28;20055;-70
2022/09/23 00:03:50;;;;;;;9.02;5.72;;;13.20;71.10;;;;;;5075972;28;20033;-70
2022/09/23 00:06:18;;;;;;;9.10;5.55;;;13.10;71.00;;;;;;5075831;28;20036;-70
2022/09/23 00:08:44;;;;;;;9.23;5.45;;;13.20;71.10;;;;;;5075876;28;20078;-70
2022/09/23 00:11:15;;;;;;;9.73;5.97;;;13.20;71.10;;;;;;5075625;28;20049;-70
2022/09/23 00:13:43;;;;;;;8.68;5.47;;;13.20;70.90;;;;;;5075515;28;20047;-70
2022/09/23 00:16:12;;;;;;;7.88;5.65;;;13.20;70.80;;;;;;5074711;28;20036;-70
2022/09/23 00:18:37;;;;;;;10.13;5.63;;;13.10;71.00;;;;;;5075658;28;20025;-70
2022/09/23 00:21:05;;;;;;;12.27;5.65;;;13.00;71.20;;;;;;5075652;28;20059;-70
2022/09/23 00:23:31;;;;;;;11.45;5.70;;;12.90;71.20;;;;;;5075597;28;20040;-70
2022/09/23 00:25:58;;;;;;;10.43;5.03;;;13.00;71.10;;;;;;5075505;28;20031;-70
2022/09/23 00:28:24;;;;;;;10.30;5.65;;;13.10;71.00;;;;;;5075443;28;20025;-70
2022/09/23 00:30:50;;;;;;;10.00;5.75;;;13.00;70.70;;;;;;5075452;28;20077;-70
2022/09/23 00:33:15;;;;;;;9.63;5.93;;;12.90;70.90;;;;;;5075397;28;20040;-70
2022/09/23 00:35:41;;;;;;;9.50;6.05;;;12.80;72.20;;;;;;5075352;28;20031;-70
2022/09/23 00:38:07;;;;;;;7.43;5.00;;;12.80;71.80;;;;;;5075324;28;20036;-70
2022/09/23 00:40:32;;;;;;;9.07;5.50;;;12.70;71.70;;;;;;5075260;28;20040;-70
2022/09/23 00:42:58;;;;;;;8.60;5.63;;;12.80;71.50;;;;;;5075227;28;20044;-70
2022/09/23 00:45:23;;;;;;;7.85;5.45;;;12.80;71.40;;;;;;5074123;28;20093;-70
2022/09/23 00:48:01;;;;;;;9.15;5.80;;;12.80;71.20;;;;;;5075118;28;20033;-70
2022/09/23 00:50:41;;;;;;;8.40;5.60;;;12.80;71.50;;;;;;5074077;28;20021;-70
2022/09/23 00:53:14;;;;;;;7.05;5.03;;;12.70;71.60;;;;;;5075088;28;20021;-70
2022/09/23 00:55:46;;;;;;;8.48;5.20;;;12.70;71.70;;;;;;5075007;28;20087;-70
2022/09/23 00:58:17;;;;;;;8.75;5.53;;;12.70;71.40;;;;;;5073946;28;20025;-70
2022/09/23 01:00:45;;;;;;;11.10;5.70;;;12.60;71.40;;;;;;5074937;28;20032;-70
2022/09/23 01:03:11;;;;;;;11.27;6.10;;;12.50;71.90;;;;;;5074869;28;20028;-70
2022/09/23 01:05:38;;;;;;;9.48;5.43;;;12.40;72.60;;;;;;5073748;28;20021;-70
2022/09/23 01:08:05;;;;;;;12.27;6.30;;;12.40;72.50;;;;;;5074757;28;20048;-70
2022/09/23 01:11:09;;;;;;;9.35;6.15;;;12.40;72.50;;;;;;5074550;28;20492;-70
2022/09/23 01:13:46;;;;;;;8.93;5.50;;;12.40;72.50;;;;;;5074630;28;20078;-70
2022/09/23 01:16:37;;;;;;;8.10;5.82;;;12.50;72.20;;;;;;5073633;28;20029;-70
2022/09/23 01:19:27;;;;;;;8.20;5.78;;;12.60;71.90;;;;;;5074606;28;20055;-71
2022/09/23 01:22:20;;;;;;;10.35;5.93;;;12.70;71.80;;;;;;5073542;28;20056;-71
2022/09/23 01:24:46;;;;;;;;;;;12.70;71.50;;;;;;5074311;28;20036;-70
2022/09/23 01:27:39;;;;;;;8.85;5.28;;;12.60;71.40;;;;;;5074312;28;19909;-70
2022/09/23 01:30:29;;;;;;;8.80;5.72;;;12.50;71.50;;;;;;5074272;28;20088;-70
2022/09/23 01:33:03;;;;;;;8.27;5.93;;;12.40;71.60;;;;;;5074461;28;20032;-71
2022/09/23 01:35:41;;;;;;;5.80;4.10;;;12.40;71.70;;;;;;5074216;28;20051;-70
2022/09/23 01:38:31;;;;;;;7.50;4.32;;;12.40;71.50;;;;;;5074209;28;20068;-70
2022/09/23 01:41:13;;;;;;;7.28;4.88;;;12.30;71.70;;;;;;5074143;28;20028;-70
2022/09/23 01:43:39;;;;;;;10.65;5.95;;;12.30;72.00;;;;;;5074112;28;20052;-70
2022/09/23 01:46:16;;;;;;;9.63;6.00;;;12.10;72.40;;;;;;5073959;28;20029;-70
2022/09/23 01:49:01;;;;;;;8.57;5.35;;;12.10;72.60;;;;;;5074039;28;20070;-70
2022/09/23 01:51:33;;;;;;;7.88;5.38;;;12.00;72.50;;;;;;5072928;28;20021;-70
2022/09/23 01:53:58;;;;;;;6.88;4.30;;;12.10;72.50;;;;;;5073927;28;20021;-70
2022/09/23 01:56:29;;;;;;;8.05;5.22;;;12.10;72.30;;;;;;5073848;28;20053;-70
2022/09/23 01:59:34;;;;;;;8.18;5.68;;;12.00;72.60;;;;;;5073876;28;20069;-70
2022/09/23 02:02:18;;;;;;;9.95;5.88;;;11.90;72.50;;;;;;5073926;28;20102;-70
2022/09/23 02:05:00;;;;;;;8.02;5.55;;;12.00;73.40;;;;;;5073913;28;20080;-70
2022/09/23 02:07:34;;;;;;;10.23;6.05;;;12.00;72.30;;;;;;5073796;28;20074;-70
2022/09/23 02:10:11;;;;;;;10.05;6.22;;;12.00;72.50;;;;;;5073445;28;20073;-70
2022/09/23 02:12:39;;;;;;;9.32;6.13;;;12.00;72.60;;;;;;5073744;28;20017;-70
2022/09/23 02:15:12;;;;;;;8.80;5.72;;;11.90;72.50;;;;;;5073512;28;20021;-70
2022/09/23 02:17:50;;;;;;;10.48;5.88;;;11.80;73.50;;;;;;5072384;28;20066;-70
2022/09/23 02:20:22;;;;;;;10.13;6.03;;;11.70;72.90;;;;;;5073509;28;20028;-70
2022/09/23 02:23:06;;;;;;;10.25;6.07;;;11.90;72.80;;;;;;5073603;28;20021;-70
2022/09/23 02:25:59;;;;;;;8.45;5.63;;;11.80;72.90;;;;;;5073359;28;20099;-69
2022/09/23 02:28:50;;;;;;;10.13;5.32;;;11.70;72.90;;;;;;5072312;28;20017;-71
2022/09/23 02:31:28;;;;;;;10.35;5.63;;;11.60;73.40;;;;;;5073321;28;20040;-69
2022/09/23 02:34:16;;;;;;;12.55;5.68;;;11.60;73.60;;;;;;5073312;28;20025;-70
2022/09/23 02:36:48;;;;;;;8.05;5.50;;;11.80;73.50;;;;;;5073251;28;20025;-70
2022/09/23 02:39:16;;;;;;;9.95;6.00;;;11.90;73.40;;;;;;5072312;28;20021;-70
2022/09/23 02:42:01;;;;;;;9.65;5.55;;;11.80;73.00;;;;;;5073172;28;20044;-70
2022/09/23 02:44:27;;;;;;;9.48;5.70;;;11.80;73.20;;;;;;5073224;28;20483;-70
2022/09/23 02:46:56;;;;;;;7.70;5.57;;;11.90;73.20;;;;;;5073059;28;20036;-70
2022/09/23 02:49:26;;;;;;;9.30;5.95;;;11.90;73.20;;;;;;5073176;28;20048;-70
2022/09/23 02:51:53;;;;;;;10.40;5.82;;;11.80;73.40;;;;;;5073175;28;20472;-70
2022/09/23 02:54:24;;;;;;;9.95;6.07;;;11.80;73.40;;;;;;5073069;28;20021;-70
2022/09/23 02:56:52;;;;;;;9.33;5.90;;;11.90;73.40;;;;;;5073265;28;20083;-70
2022/09/23 02:59:19;;;;;;;8.32;5.40;;;11.90;73.10;;;;;;5073051;28;20032;-70
2022/09/23 03:02:16;;;;;;;10.50;5.82;;;12.00;72.90;;;;;;5073005;28;20154;-70
2022/09/23 03:04:50;;;;;;;10.02;5.53;;;11.90;72.90;;;;;;5073151;28;20021;-70
2022/09/23 03:07:18;;;;;;;9.70;6.22;;;11.80;73.20;;;;;;5073066;28;20054;-70
2022/09/23 03:09:49;;;;;;;7.85;5.63;;;11.60;73.60;;;;;;5071886;28;20171;-70
2022/09/23 03:12:24;;;;;;;9.98;6.13;;;11.60;74.10;;;;;;5072973;28;20086;-70
2022/09/23 03:15:01;;;;;;;10.27;5.95;;;11.50;74.00;;;;;;5072941;28;20077;-70
2022/09/23 03:17:55;;;;;;;8.10;5.85;;;11.50;74.50;;;;;;5071903;28;20048;-70
2022/09/23 03:20:21;;;;;;;10.15;6.05;;;11.50;74.50;;;;;;5069834;28;20033;-70
2022/09/23 03:22:53;;;;;;;8.77;6.07;;;11.40;74.50;;;;;;5072782;28;20076;-70
2022/09/23 03:25:20;;;;;;;;;;;11.40;74.60;;;;;;5073176;28;20104;-70
2022/09/23 03:27:46;;;;;;;7.43;5.60;;;11.40;74.70;;;;;;5072757;28;19912;-70
2022/09/23 03:30:12;;;;;;;8.25;6.22;;;11.30;75.10;;;;;;5072652;28;20029;-70
2022/09/23 03:32:42;;;;;;;9.18;5.70;;;11.40;74.90;;;;;;5072704;28;20032;-70
2022/09/23 03:35:09;;;;;;;9.70;5.47;;;11.40;74.50;;;;;;5071741;28;20097;-70
2022/09/23 03:37:49;;;;;;;8.55;5.25;;;11.30;74.60;;;;;;5072694;28;20025;-70
2022/09/23 03:40:14;;;;;;;7.20;4.68;;;11.30;74.50;;;;;;5072832;28;20021;-70
2022/09/23 03:42:40;;;;;;;7.20;5.40;;;11.30;74.30;;;;;;5072616;28;20089;-70
2022/09/23 03:45:12;;;;;;;11.40;5.53;;;11.20;74.50;;;;;;5072629;28;20025;-70
2022/09/23 03:47:38;;;;;;;9.27;6.32;;;11.20;74.80;;;;;;5071722;28;20029;-70
2022/09/23 03:50:05;;;;;;;8.85;5.82;;;11.20;74.70;;;;;;5076240;28;20167;-70
2022/09/23 03:52:30;;;;;;;8.77;5.90;;;11.10;74.90;;;;;;5076169;28;20071;-70
2022/09/23 03:54:56;;;;;;;7.88;5.45;;;11.10;76.10;;;;;;5076152;28;20037;-70
2022/09/23 03:57:22;;;;;;;6.20;4.50;;;11.10;75.00;;;;;;5076090;28;20029;-71
2022/09/23 03:59:49;;;;;;;7.72;5.10;;;11.10;74.60;;;;;;5076088;28;20123;-70
2022/09/23 04:02:16;;;;;;;7.38;5.28;;;11.20;74.40;;;;;;5076024;28;20054;-70
2022/09/23 04:04:42;;;;;;;12.20;6.20;;;11.30;74.30;;;;;;5075989;28;20076;-69
2022/09/23 04:07:10;;;;;;;7.55;5.35;;;11.40;74.20;;;;;;5076017;28;20022;-70
2022/09/23 04:09:36;;;;;;;7.50;5.13;;;11.40;73.80;;;;;;5075868;28;20033;-70
2022/09/23 04:12:03;;;;;;;8.05;5.20;;;11.50;73.50;;;;;;5075708;28;20067;-70
2022/09/23 04:14:29;;;;;;;6.40;3.97;;;11.40;73.50;;;;;;5075797;28;20021;-70
2022/09/23 04:16:55;;;;;;;5.00;3.70;;;11.40;73.70;;;;;;5075745;28;20033;-70
2022/09/23 04:19:21;;;;;;;6.47;4.30;;;11.30;73.70;;;;;;5075729;28;20077;-70
2022/09/23 04:21:47;;;;;;;8.27;4.70;;;11.20;74.10;;;;;;5075631;28;20025;-70
2022/09/23 04:24:13;;;;;;;7.82;5.28;;;11.20;74.30;;;;;;5075613;28;20026;-70
2022/09/23 04:26:39;;;;;;;9.18;4.60;;;11.10;74.70;;;;;;5075522;28;20017;-70
2022/09/23 04:29:05;;;;;;;7.63;4.65;;;11.10;74.70;;;;;;5075577;28;20059;-70
2022/09/23 04:31:32;;;;;;;8.52;5.50;;;11.10;74.70;;;;;;5075480;28;20021;-70
2022/09/23 04:33:57;;;;;;;7.20;5.30;;;11.00;74.70;;;;;;5075414;28;20048;-70
2022/09/23 04:36:23;;;;;;;7.78;5.70;;;11.00;74.60;;;;;;5075411;28;20033;-69
2022/09/23 04:38:50;;;;;;;8.27;5.57;;;10.90;74.80;;;;;;5074458;28;20033;-70
2022/09/23 04:41:17;;;;;;;12.20;5.55;;;10.90;75.50;;;;;;5075328;28;20116;-70
2022/09/23 04:43:43;;;;;;;9.10;5.43;;;10.90;75.30;;;;;;5075243;28;20029;-70
2022/09/23 04:46:12;;;;;;;8.60;5.40;;;10.90;75.30;;;;;;5075148;28;20025;-70
2022/09/23 04:48:39;;;;;;;8.73;4.80;;;10.90;75.30;;;;;;5074930;28;20025;-70
2022/09/23 04:51:07;;;;;;;7.90;4.85;;;10.90;75.00;;;;;;5075109;28;20012;-70
2022/09/23 04:53:34;;;;;;;6.75;5.00;;;11.00;74.90;;;;;;5075078;28;20025;-70
2022/09/23 04:56:21;;;;;;;7.28;5.18;;;11.00;74.50;;;;;;5075002;28;20025;-70
2022/09/23 04:58:47;;;;;;;6.97;4.90;;;10.90;74.90;;;;;;5074804;28;20029;-69
2022/09/23 05:01:22;;;;;;;6.47;4.82;;;11.00;74.90;;;;;;5072988;28;20029;-70
2022/09/23 05:03:48;;;;;;;6.93;5.13;;;11.00;74.80;;;;;;5075049;28;20029;-70
2022/09/23 05:06:14;;;;;;;7.57;5.35;;;11.10;74.50;;;;;;5074731;28;20049;-70
2022/09/23 05:08:40;;;;;;;8.98;5.47;;;11.10;74.30;;;;;;5074765;28;20028;-70
2022/09/23 05:11:07;;;;;;;8.68;4.90;;;11.00;74.40;;;;;;5073669;28;20053;-70
2022/09/23 05:13:34;;;;;;;8.80;5.35;;;11.00;74.70;;;;;;5074661;28;20021;-70
2022/09/23 05:16:06;;;;;;;8.40;4.97;;;11.00;74.80;;;;;;5074764;28;20021;-70
2022/09/23 05:18:33;;;;;;;;;;;11.20;74.50;;;;;;5075042;28;20021;-70
2022/09/23 05:20:59;;;;;;;8.38;5.35;;;11.20;74.30;;;;;;5074525;28;19934;-70
2022/09/23 05:23:26;;;;;;;16.00;5.88;;;11.10;74.60;;;;;;5073517;28;20056;-70
2022/09/23 05:26:00;;;;;;;6.95;5.20;;;11.10;74.90;;;;;;5074355;28;20029;-70
2022/09/23 05:28:31;;;;;;;9.20;5.40;;;11.00;75.00;;;;;;5074373;28;20025;-70
2022/09/23 05:31:15;;;;;;;11.50;5.90;;;10.90;75.20;;;;;;5074387;28;20043;-70
2022/09/23 05:33:42;;;;;;;9.25;5.40;;;10.90;75.40;;;;;;5074369;28;20081;-70
2022/09/23 05:36:08;;;;;;;8.18;5.22;;;11.00;75.00;;;;;;5073243;28;20046;-71
2022/09/23 05:38:35;;;;;;;8.13;5.30;;;10.90;75.00;;;;;;5074174;28;20033;-71
2022/09/23 05:41:04;;;;;;;7.18;5.05;;;10.90;75.50;;;;;;5074155;28;20487;-72
2022/09/23 05:43:29;;;;;;;8.15;5.35;;;10.90;75.50;;;;;;5074039;28;20047;-71
2022/09/23 05:46:06;;;;;;;7.32;5.10;;;10.80;75.80;;;;;;5073026;28;20100;-71
2022/09/23 05:48:33;;;;;;;10.52;5.22;;;11.00;75.90;;;;;;5074049;28;20183;-71
2022/09/23 05:50:59;;;;;;;9.32;5.25;;;11.00;76.40;;;;;;5073962;28;20483;-72
2022/09/23 05:53:29;;;;;;;7.63;5.18;;;11.00;75.40;;;;;;5073889;28;20025;-70
2022/09/23 05:55:55;;;;;;;8.00;5.35;;;11.00;75.50;;;;;;5073987;28;20084;-70
2022/09/23 05:58:23;;;;;;;9.10;5.82;;;11.00;75.80;;;;;;5073866;28;20033;-69
2022/09/23 06:00:49;;;;;;;11.90;5.78;;;11.00;75.80;;;;;;5073799;28;20025;-70
2022/09/23 06:03:17;;;;;;;12.75;6.35;;;11.00;76.20;;;;;;5073812;28;20029;-71
2022/09/23 06:05:43;;;;;;;10.40;5.97;;;11.10;76.00;;;;;;5073628;28;20047;-71
2022/09/23 06:08:10;;;;;;;8.50;5.95;;;11.20;75.80;;;;;;5073571;28;20029;-70
2022/09/23 06:10:37;;;;;;;8.63;5.82;;;11.20;75.70;;;;;;5073187;28;20094;-70
2022/09/23 06:13:03;;;;;;;9.98;6.75;;;11.20;75.50;;;;;;5073612;28;20021;-71
2022/09/23 06:15:28;;;;;;;10.43;6.47;;;11.20;75.60;;;;;;5073437;28;20023;-70
2022/09/23 06:17:54;;;;;;;9.63;6.75;;;11.30;75.90;;;;;;5072636;28;20032;-70
2022/09/23 06:20:19;;;;;;;12.25;6.47;;;11.20;76.20;;;;;;5073504;28;20041;-70
2022/09/23 06:22:45;;;;;;;8.75;6.28;;;11.20;76.70;;;;;;5073465;28;20491;-70
2022/09/23 06:25:11;;;;;;;9.55;6.30;;;11.20;76.70;;;;;;5073352;28;20022;-70
2022/09/23 06:27:38;;;;;;;10.20;6.38;;;11.30;76.90;;;;;;5073310;28;20044;-70
2022/09/23 06:30:05;;;;;;;12.65;6.93;;;11.40;76.70;;;;;;5073304;28;20055;-70
2022/09/23 06:32:31;;;;;;;10.68;7.15;;;11.40;76.90;;;;;;5073424;28;20017;-71
2022/09/23 06:34:57;;;;;;;11.57;7.80;;;11.40;76.90;;;;;;5073284;28;20032;-71
2022/09/23 06:37:23;;;;;;;13.88;7.93;;;11.40;77.10;;;;;;5073269;28;20021;-70
2022/09/23 06:39:48;;;;;;;15.20;8.18;;;11.30;77.60;;;;;;5073139;28;20021;-70
2022/09/23 06:42:15;;;;;;;16.75;8.85;;;11.30;77.90;;;;;;5073205;28;20044;-70
2022/09/23 06:44:41;;;;;;;13.02;7.38;;;11.30;78.10;;;;;;5073289;28;20033;-70
2022/09/23 06:47:07;;;;;;;12.18;7.53;;;11.40;78.10;;;;;;5073081;28;20032;-70
2022/09/23 06:49:32;;;;;;;12.25;7.82;;;11.40;78.70;;;;;;5073127;28;20014;-73
2022/09/23 06:51:59;;;;;;;10.85;7.05;;;11.50;78.10;;;;;;5072160;28;20026;-70
2022/09/23 06:54:27;;;;;;;11.27;7.75;;;11.50;77.80;;;;;;5073103;28;20052;-70
2022/09/23 06:56:54;;;;;;;11.57;6.93;;;11.60;77.80;;;;;;5073049;28;20021;-70
2022/09/23 06:59:19;;;;;;;11.65;7.05;;;11.70;77.50;;;;;;5073037;28;20036;-70
2022/09/23 07:01:46;;;;;;;14.02;7.78;;;11.70;77.40;;;;;;5073049;28;20112;-70
2022/09/23 07:04:12;;;;;;;13.55;7.13;;;11.70;78.40;;;;;;5073001;28;20074;-71
2022/09/23 07:06:38;;;;;;;11.90;7.68;;;11.70;77.70;;;;;;5072881;28;20032;-70
2022/09/23 07:09:06;;;;;;;13.75;7.80;;;11.70;77.80;;;;;;5072952;28;20029;-70
2022/09/23 07:11:31;;;;;;;11.70;7.18;;;11.60;78.60;;;;;;5072743;28;20135;-70
2022/09/23 07:13:57;;;;;;;12.50;8.55;;;11.70;77.50;;;;;;5072910;28;20025;-70
2022/09/23 07:16:23;;;;;;;10.90;7.72;;;11.80;77.70;;;;;;5072958;28;20033;-70
2022/09/23 07:18:48;;;;;;;9.85;6.85;;;11.90;77.70;;;;;;5071991;28;20084;-71
2022/09/23 07:21:17;;;;;;;12.57;7.22;;;11.90;77.60;;;;;;5072832;28;20028;-70
2022/09/23 07:23:51;;;;;;;12.57;7.85;;;11.90;77.60;;;;;;5074741;28;20028;-70
2022/09/23 07:26:18;;;;;;;9.85;7.15;;;11.90;77.70;;;;;;5076672;28;20033;-71
2022/09/23 07:28:44;;;;;;;11.73;7.88;;;12.00;77.40;;;;;;5076585;28;20021;-71
2022/09/23 07:31:12;;;;;;;11.05;7.63;;;12.00;77.50;;;;;;5076626;28;20031;-70
2022/09/23 07:33:42;;;;;;;12.10;7.70;;;12.00;77.60;;;;;;5076506;28;20028;-70
2022/09/23 07:36:11;;;;;;;12.13;7.95;;;12.00;77.40;;;;;;5075513;28;20045;-71
2022/09/23 07:38:38;;;;;;;14.68;8.38;;;12.00;77.90;;;;;;5076481;28;20029;-71
2022/09/23 07:41:09;;;;;;;13.20;7.88;;;12.10;77.90;;;;;;5076460;28;20021;-70
2022/09/23 07:43:36;;;;;;;9.82;7.32;;;12.10;77.90;;;;;;5076604;28;20100;-71
2022/09/23 07:46:07;;;;;;;10.43;6.70;;;12.10;77.30;;;;;;5075350;28;20025;-71
2022/09/23 07:48:33;;;;;;;12.55;7.55;;;12.20;77.60;;;;;;5076349;28;20025;-70
2022/09/23 07:50:59;;;;;;;10.63;6.78;;;12.20;77.50;;;;;;5076249;28;20048;-70
2022/09/23 07:53:26;;;;;;;11.45;7.50;;;12.20;78.00;;;;;;5076232;28;20500;-70
2022/09/23 07:55:55;;;;;;;11.77;7.07;;;12.30;77.60;;;;;;5076187;28;20025;-70
2022/09/23 07:58:22;;;;;;;11.13;7.05;;;12.40;77.80;;;;;;5076137;28;20025;-70
2022/09/23 08:00:49;;;;;;;8.43;6.25;;;12.50;78.10;;;;;;5076054;28;20049;-71
2022/09/23 08:03:15;;;;;;;8.90;6.88;;;12.50;77.90;;;;;;5076060;28;20021;-70
2022/09/23 08:05:41;;;;;;;10.18;6.88;;;12.50;77.60;;;;;;5074925;28;20029;-70
2022/09/23 08:08:07;;;;;;;11.43;7.50;;;12.60;77.30;;;;;;5074997;28;20048;-70
2022/09/23 08:10:33;;;;;;;9.85;6.35;;;12.70;77.00;;;;;;5075611;28;20112;-71
2022/09/23 08:13:00;;;;;;;11.80;7.07;;;12.80;77.10;;;;;;5076006;28;20086;-70
2022/09/23 08:15:27;;;;;;;11.52;7.20;;;12.90;77.10;;;;;;5075805;28;20025;-70
2022/09/23 08:17:52;;;;;;;11.10;7.20;;;13.00;76.60;;;;;;5075803;28;20021;-71
2022/09/23 08:23:02;;;;;;;11.70;6.85;;;13.10;76.20;;;;;;5075797;28;20059;-70
2022/09/23 08:25:28;;;;;;;11.60;7.60;;;13.20;76.30;;;;;;5075521;28;20025;-71
2022/09/23 08:27:53;;;;;;;11.20;7.10;;;13.20;76.40;;;;;;5075576;28;20036;-70
2022/09/23 08:30:19;;;;;;;13.43;7.70;;;13.30;76.40;;;;;;5075564;28;20071;-71
2022/09/23 08:32:48;;;;;;;9.35;7.20;;;13.40;75.90;;;;;;5075528;28;20071;-72
2022/09/23 08:35:14;;;;;;;10.77;7.50;;;13.40;75.70;;;;;;5075271;28;20021;-72
2022/09/23 08:37:39;;;;;;;9.98;7.10;;;13.50;75.40;;;;;;5075376;28;20033;-72
2022/09/23 08:40:06;;;;;;;10.85;7.70;;;13.50;75.20;;;;;;5075345;28;20085;-72
2022/09/23 08:42:33;;;;;;;14.48;8.23;;;13.60;75.20;;;;;;5075308;28;20035;-72
2022/09/23 08:45:03;;;;;;;10.40;7.72;;;13.60;75.30;;;;;;5074243;28;20036;-72
2022/09/23 08:47:42;;;;;;;13.90;8.55;;;13.60;75.40;;;;;;5075129;28;20017;-72
2022/09/23 08:50:14;;;;;;;13.15;7.60;;;13.60;75.30;;;;;;5075191;28;20017;-71
2022/09/23 08:52:49;;;;;;;9.73;7.25;;;13.70;75.20;;;;;;5075278;28;20021;-72
2022/09/23 08:55:15;;;;;;;11.18;7.28;;;13.70;75.30;;;;;;5074216;28;20041;-72
2022/09/23 08:58:08;;;;;;;15.68;8.13;;;13.80;74.90;;;;;;5075063;28;20025;-71
2022/09/23 09:00:40;;;;;;;11.20;8.18;;;13.90;74.60;;;;;;5074684;28;20445;-72
2022/09/23 09:03:21;;;;;;;16.60;7.93;;;13.90;74.60;;;;;;5074034;28;20025;-71
2022/09/23 09:05:48;;;;;;;12.18;7.55;;;14.00;74.50;;;;;;5074835;28;20115;-72
2022/09/23 09:08:22;;;;;;;10.48;7.70;;;14.00;74.30;;;;;;5074788;28;20028;-72
2022/09/23 09:10:48;;;;;;;10.73;6.85;;;14.10;74.90;;;;;;5074598;28;20052;-72
2022/09/23 09:13:33;;;;;;;10.98;7.43;;;14.10;74.60;;;;;;5074671;28;20104;-72
2022/09/23 09:16:12;;;;;;;11.07;7.75;;;14.20;74.50;;;;;;5074689;28;20033;-72
2022/09/23 09:18:51;;;;;;;10.10;7.45;;;14.20;74.20;;;;;;5074619;28;20025;-72
2022/09/23 09:21:17;;;;;;;12.95;8.25;;;14.40;74.30;;;;;;5074618;28;20021;-71
2022/09/23 09:23:56;;;;;;;15.32;7.93;;;14.40;73.40;;;;;;5074496;28;20078;-71
2022/09/23 09:26:25;;;;;;;12.57;7.63;;;14.40;73.40;;;;;;5074561;28;20021;-71
2022/09/23 09:29:01;;;;;;;13.63;8.68;;;14.50;73.70;;;;;;5074318;28;20080;-72
2022/09/23 09:31:46;;;;;;;13.00;8.15;;;14.50;73.40;;;;;;5074437;28;20077;-71
2022/09/23 09:34:37;;;;;;;11.73;7.78;;;14.60;73.20;;;;;;5074354;28;20040;-72
2022/09/23 09:37:23;;;;;;;15.80;8.48;;;14.70;71.90;;;;;;5074347;28;20045;-72
2022/09/23 09:39:49;;;;;;;13.57;8.13;;;14.70;72.40;;;;;;5074372;28;20047;-72
2022/09/23 09:42:22;;;;;;;14.10;8.90;;;14.80;72.60;;;;;;5074136;28;20021;-72
2022/09/23 09:44:57;;;;;;;12.25;7.45;;;14.80;72.50;;;;;;5074125;28;20032;-72
2022/09/23 09:47:46;;;;;;;11.10;7.90;;;14.90;72.00;;;;;;5073496;28;20029;-73
2022/09/23 09:50:20;;;;;;;12.98;7.57;;;15.00;72.40;;;;;;5074188;28;20014;-73
2022/09/23 09:52:55;;;;;;;12.85;7.57;;;15.10;71.90;;;;;;5074166;28;20048;-72
2022/09/23 09:55:27;;;;;;;12.40;7.43;;;15.10;71.40;;;;;;5073941;28;20029;-72
2022/09/23 09:58:03;;;;;;;11.27;6.88;;;15.30;71.70;;;;;;5073940;28;20028;-72
2022/09/23 10:00:29;;;;;;;10.07;6.75;;;15.40;71.50;;;;;;5073960;28;20021;-72
2022/09/23 10:03:02;;;;;;;11.80;7.47;;;15.40;70.30;;;;;;5073774;28;20100;-72
2022/09/23 10:05:45;;;;;;;12.13;7.25;;;15.40;70.40;;;;;;5073626;28;20092;-72
2022/09/23 10:08:35;;;;;;;14.77;8.05;;;15.50;69.10;;;;;;5073753;28;20081;-72
2022/09/23 10:11:08;;;;;;;13.75;7.85;;;15.60;70.80;;;;;;5073448;28;20068;-73
2022/09/23 10:13:34;;;;;;;13.60;8.05;;;15.60;69.70;;;;;;5073672;28;20021;-73
2022/09/23 10:16:02;;;;;;;16.80;8.38;;;15.80;69.40;;;;;;5073558;28;20071;-72
2022/09/23 10:18:37;;;;;;;13.25;7.65;;;15.90;70.00;;;;;;5073524;28;20029;-72
2022/09/23 10:21:12;;;;;;;13.85;7.82;;;16.00;69.20;;;;;;5073686;28;20089;-73
2022/09/23 10:23:43;;;;;;;14.55;8.15;;;16.10;68.70;;;;;;5073498;28;20025;-73
2022/09/23 10:26:11;;;;;;;15.93;8.07;;;16.10;68.80;;;;;;5073390;28;20024;-72
2022/09/23 10:28:40;;;;;;;9.82;7.20;;;16.10;68.40;;;;;;5073301;28;20036;-72
2022/09/23 10:31:12;;;;;;;14.18;7.85;;;16.20;68.20;;;;;;5073513;28;20029;-72
2022/09/23 10:33:50;;;;;;;12.98;7.47;;;16.30;68.10;;;;;;5073303;28;20032;-72
2022/09/23 10:36:17;;;;;;;12.32;7.57;;;16.40;67.50;;;;;;5073313;28;20025;-73
2022/09/23 10:38:43;;;;;;;14.07;8.30;;;16.50;67.70;;;;;;5072265;28;20033;-73
2022/09/23 10:47:49;;;;;;;12.85;7.28;;;16.60;67.40;;;;;;5073169;28;20557;-72
2022/09/23 10:50:33;;;;;;;12.60;7.55;;;16.60;66.00;;;;;;5066591;28;20033;-72
2022/09/23 10:53:10;;;;;;;11.65;7.00;;;16.60;66.80;;;;;;5073288;28;20066;-73
2022/09/23 10:56:11;;;;;;;10.88;7.15;;;16.60;66.50;;;;;;5073145;28;20044;-72
2022/09/23 10:58:51;;;;;;;10.45;6.70;;;16.60;65.50;;;;;;5066185;28;20041;-72
2022/09/23 11:01:39;;;;;;;11.98;7.03;;;16.60;66.30;;;;;;5076271;28;20029;-73
2022/09/23 11:04:20;;;;;;;10.35;7.10;;;16.70;66.70;;;;;;5077209;28;20029;-72
2022/09/23 11:06:57;;;;;;;9.98;6.47;;;16.70;66.60;;;;;;5077103;28;20059;-72
2022/09/23 11:09:23;;;;;;;13.40;7.60;;;16.70;65.90;;;;;;5077243;28;20391;-72
2022/09/23 11:12:15;;;;;;;11.75;6.90;;;16.70;66.30;;;;;;5076770;28;20037;-72
2022/09/23 11:14:57;;;;;;;10.27;6.37;;;16.80;65.90;;;;;;5068532;28;20056;-72
2022/09/23 11:17:25;;;;;;;10.20;6.10;;;16.80;64.60;;;;;;5076982;28;20041;-72
2022/09/23 11:20:16;;;;;;;11.90;6.78;;;16.90;63.90;;;;;;5076824;28;20036;-72
2022/09/23 11:23:03;;;;;;;11.82;6.75;;;16.90;64.40;;;;;;5076834;28;20021;-72
2022/09/23 11:25:52;;;;;;;9.43;6.20;;;16.90;65.00;;;;;;5076822;28;20028;-71
2022/09/23 11:28:32;;;;;;;10.13;5.80;;;16.90;66.00;;;;;;5076839;28;20036;-72
2022/09/23 11:31:05;;;;;;;10.68;6.00;;;17.00;65.50;;;;;;5076711;28;20024;-72
2022/09/23 11:33:46;;;;;;;9.60;6.40;;;17.00;65.50;;;;;;5076802;28;20021;-72
2022/09/23 11:36:23;;;;;;;11.10;5.82;;;17.10;65.30;;;;;;5076723;28;20057;-72
2022/09/23 11:38:52;;;;;;;10.20;6.07;;;17.10;65.20;;;;;;5076574;28;20025;-72
2022/09/23 11:41:31;;;;;;;8.15;5.38;;;17.10;64.20;;;;;;5076497;28;20021;-73
2022/09/23 11:44:12;;;;;;;8.70;5.45;;;17.20;63.20;;;;;;5076396;28;20039;-73
2022/09/23 11:47:03;;;;;;;8.23;5.50;;;17.20;63.00;;;;;;5076351;28;20476;-72
2022/09/23 11:49:35;;;;;;;11.10;5.78;;;17.20;63.50;;;;;;5076384;28;20103;-72
2022/09/23 11:52:10;;;;;;;;;;;17.30;63.50;;;;;;5076726;28;20025;-72
2022/09/23 11:54:47;;;;;;;9.65;5.05;;;17.30;64.10;;;;;;5076328;28;19904;-72
2022/09/23 11:57:29;;;;;;;8.35;5.43;;;17.30;63.40;;;;;;5076234;28;20025;-72
2022/09/23 12:00:11;;;;;;;10.48;4.97;;;17.30;62.40;;;;;;5076219;28;20021;-72
2022/09/23 12:02:58;;;;;;;9.32;5.20;;;17.20;62.30;;;;;;5076242;28;20025;-72
2022/09/23 12:05:28;;;;;;;6.93;4.88;;;17.40;63.70;;;;;;5076231;28;20033;-72
2022/09/23 12:08:24;;;;;;;7.18;4.82;;;17.40;64.00;;;;;;5075905;28;20025;-72
2022/09/23 12:11:15;;;;;;;10.07;4.85;;;17.50;62.40;;;;;;5075662;28;20109;-71
2022/09/23 12:14:00;;;;;;;7.85;4.75;;;17.50;63.00;;;;;;5076034;28;20027;-72
2022/09/23 12:16:36;;;;;;;7.57;4.95;;;17.70;64.10;;;;;;5074869;28;20052;-72
2022/09/23 12:19:33;;;;;;;8.20;5.03;;;17.70;62.00;;;;;;5075965;28;20034;-72
2022/09/23 12:22:24;;;;;;;8.18;5.30;;;17.80;63.10;;;;;;5075880;28;20081;-72
2022/09/23 12:25:16;;;;;;;8.35;4.60;;;17.80;62.20;;;;;;5075691;28;20085;-72
2022/09/23 12:27:50;;;;;;;6.28;4.38;;;17.80;62.00;;;;;;5075583;28;20085;-73
2022/09/23 12:30:25;;;;;;;8.07;4.80;;;17.80;61.00;;;;;;5074598;28;20045;-72
2022/09/23 12:32:53;;;;;;;8.27;4.43;;;17.80;62.30;;;;;;5074533;28;20048;-72
2022/09/23 12:35:34;;;;;;;7.28;4.07;;;17.90;61.80;;;;;;5075442;28;20032;-72
2022/09/23 12:38:01;;;;;;;6.43;4.15;;;18.00;60.80;;;;;;5075575;28;20025;-72
2022/09/23 12:40:42;;;;;;;7.13;4.25;;;18.00;59.80;;;;;;5075409;28;20573;-72
2022/09/23 12:43:33;;;;;;;6.70;3.90;;;18.10;60.00;;;;;;5075390;28;20024;-72
2022/09/23 12:46:24;;;;;;;7.55;3.78;;;18.10;60.30;;;;;;5071935;28;20032;-72
2022/09/23 12:48:59;;;;;;;6.43;4.45;;;18.10;59.60;;;;;;5075231;28;20044;-72
2022/09/23 12:51:27;;;;;;;8.68;4.53;;;18.10;60.10;;;;;;5075357;28;20028;-72
2022/09/23 12:53:59;;;;;;;8.10;4.53;;;18.10;59.70;;;;;;5075100;28;20025;-71
2022/09/23 12:56:37;;;;;;;6.18;4.60;;;18.10;60.30;;;;;;5075278;28;20025;-72
2022/09/23 12:59:15;;;;;;;8.25;4.00;;;18.10;59.70;;;;;;5075026;28;20048;-72
2022/09/23 13:01:41;;;;;;;5.55;3.65;;;18.20;59.30;;;;;;5074970;28;20033;-72
2022/09/23 13:07:16;;;;;;;6.47;3.42;;;18.10;58.90;;;;;;5075013;28;20083;-73
2022/09/23 13:09:48;;;;;;;4.05;3.08;;;18.10;60.60;;;;;;5074885;28;20025;-73
2022/09/23 13:12:22;;;;;;;5.17;2.80;;;18.10;59.60;;;;;;5074795;28;20052;-72
2022/09/23 13:14:51;;;;;;;4.45;2.70;;;18.10;59.10;;;;;;5073717;28;20021;-71
2022/09/23 13:17:37;;;;;;;4.68;3.20;;;18.10;58.00;;;;;;5074684;28;20028;-72
2022/09/23 13:20:03;;;;;;;5.82;3.15;;;18.10;58.60;;;;;;5073401;28;20055;-72
2022/09/23 13:23:14;;;;;;;7.47;3.33;;;18.20;58.60;;;;;;5074024;28;20029;-73